Time;durP1;ratioP1;P1;durP2;ratioP2;P2;SDS_P1;SDS_P2;PMS_P1;PMS_P2;Temp;Humidity;BMP_temperature;BMP_pressure;BME280_temperature;BME280_humidity;BME280_pressure;Samples;Min_cycle;Max_cycle;Signal;HPM_P1;HPM_P2
2022/10/17 00:00:28;;;;;;;12.25;6.42;;;;;;;5.48;71.04;101960.41;1745460;81;21051;-66
2022/10/17 00:02:57;;;;;;;14.10;7.00;;;;;;;5.48;71.04;101960.41;1745791;81;21483;-66
2022/10/17 00:05:26;;;;;;;13.40;6.42;;;;;;;5.48;71.01;101963.13;1744936;82;21070;-66
2022/10/17 00:07:55;;;;;;;15.03;6.45;;;;;;;5.43;71.05;101968.95;1745121;82;21089;-65
2022/10/17 00:10:27;;;;;;;12.75;6.28;;;;;;;5.40;71.21;101973.28;1744991;82;21087;-66
2022/10/17 00:12:57;;;;;;;10.50;6.37;;;;;;;5.39;71.24;101967.47;1748770;82;21501;-66
2022/10/17 00:15:27;;;;;;;12.53;6.70;;;;;;;5.38;71.29;101977.48;1728406;81;21004;-66
2022/10/17 00:17:57;;;;;;;12.75;7.33;;;;;;;5.36;71.29;101974.02;1728780;82;21055;-67
2022/10/17 00:20:31;;;;;;;13.18;7.10;;;;;;;5.33;71.32;101975.64;1728577;83;21510;-65
2022/10/17 00:23:03;;;;;;;11.25;6.35;;;;;;;5.30;71.47;101977.25;1706741;83;21097;-67
2022/10/17 00:25:33;;;;;;;13.95;6.50;;;;;;;5.28;71.61;101981.08;1756785;80;21090;-65
2022/10/17 00:28:02;;;;;;;13.48;6.58;;;;;;;5.26;71.79;101977.12;1756797;81;21066;-65
2022/10/17 00:30:34;;;;;;;11.60;6.53;;;;;;;5.26;71.91;101976.27;1756901;81;21482;-65
2022/10/17 00:33:03;;;;;;;12.65;6.17;;;;;;;5.25;72.11;101979.47;1756910;81;21066;-67
2022/10/17 00:35:35;;;;;;;10.08;6.62;;;;;;;5.22;72.13;101974.28;1757190;81;21465;-65
2022/10/17 00:38:05;;;;;;;11.00;6.35;;;;;;;5.22;72.22;101975.64;1757606;81;21062;-65
2022/10/17 00:40:33;;;;;;;12.05;5.87;;;;;;;5.23;72.28;101978.73;1756045;81;21042;-65
2022/10/17 00:43:03;;;;;;;9.10;5.65;;;;;;;5.25;72.29;101975.89;1756051;81;21459;-66
2022/10/17 00:45:32;;;;;;;11.90;5.60;;;;;;;5.26;72.38;101970.33;1757704;81;21030;-66
2022/10/17 00:48:04;;;;;;;10.38;5.97;;;;;;;5.27;72.32;101978.86;1756601;81;21532;-67
2022/10/17 00:50:35;;;;;;;12.40;6.10;;;;;;;5.27;72.39;101973.42;1746048;81;21034;-66
2022/10/17 00:53:05;;;;;;;8.65;5.00;;;;;;;5.29;72.43;101969.22;1756995;80;21074;-66
2022/10/17 00:55:38;;;;;;;13.03;6.85;;;;;;;5.28;72.41;101969.71;1745350;81;21030;-64
2022/10/17 00:58:07;;;;;;;16.62;8.83;;;;;;;5.33;72.53;101970.20;1756750;81;21134;-66
2022/10/17 01:00:36;;;;;;;14.43;9.13;;;;;;;5.36;72.46;101960.93;1745344;80;21473;-66
2022/10/17 01:03:05;;;;;;;15.30;9.33;;;;;;;5.44;72.33;101967.09;1731342;82;21078;-64
2022/10/17 01:05:36;;;;;;;14.80;8.98;;;;;;;5.47;72.18;101966.34;1745099;81;21466;-66
2022/10/17 01:08:06;;;;;;;12.55;6.50;;;;;;;5.52;72.04;101961.89;1757195;81;21026;-65
2022/10/17 01:11:05;;;;;;;13.48;6.20;;;;;;;5.53;71.96;101963.62;1745501;81;21066;-65
2022/10/17 01:14:03;;;;;;;12.03;5.62;;;;;;;5.57;71.87;101963.73;1757183;80;21097;-65
2022/10/17 01:16:50;;;;;;;10.15;5.40;;;;;;;5.62;71.75;101973.23;1740432;80;21129;-66
2022/10/17 01:19:49;;;;;;;10.13;5.08;;;;;;;5.70;71.58;101963.94;1756737;80;21037;-65
2022/10/17 01:22:38;;;;;;;10.10;5.08;;;;;;;5.77;71.31;101961.58;1751633;81;21095;-66
2022/10/17 01:25:42;;;;;;;8.93;5.17;;;;;;;5.82;71.00;101958.47;1764817;80;21043;-65
2022/10/17 01:28:39;;;;;;;10.98;5.30;;;;;;;5.87;70.71;101957.12;1723063;82;21164;-66
2022/10/17 01:31:19;;;;;;;11.88;5.37;;;;;;;5.87;70.46;101953.05;1700645;82;21099;-66
2022/10/17 01:34:08;;;;;;;9.53;5.05;;;;;;;5.88;70.42;101962.93;1755000;79;21023;-65
2022/10/17 01:37:06;;;;;;;10.30;4.78;;;;;;;5.92;70.34;101969.01;1750159;82;21049;-64
2022/10/17 01:39:53;;;;;;;6.75;4.37;;;;;;;5.97;70.21;101964.91;1753849;82;21035;-65
2022/10/17 01:42:37;;;;;;;8.65;4.40;;;;;;;6.02;69.99;101958.58;1765065;80;21051;-65
2022/10/17 01:45:17;;;;;;;10.35;5.30;;;;;;;6.09;69.71;101956.70;1735095;81;21018;-66
2022/10/17 01:47:48;;;;;;;12.30;5.67;;;;;;;6.13;69.50;101953.58;1769178;79;21093;-65
2022/10/17 01:50:38;;;;;;;9.23;4.78;;;;;;;6.18;69.27;101949.97;1752963;81;21512;-64
2022/10/17 01:53:12;;;;;;;7.85;5.08;;;;;;;6.22;69.04;101947.34;1734871;81;21006;-67
2022/10/17 01:55:45;;;;;;;11.35;5.00;;;;;;;6.24;68.82;101946.72;1766292;79;21550;-65
2022/10/17 01:58:33;;;;;;;10.53;4.85;;;;;;;6.23;68.72;101942.77;1754723;80;21058;-66
2022/10/17 02:01:05;;;;;;;9.55;5.08;;;;;;;6.18;68.68;101945.89;1742684;82;21313;-66
2022/10/17 02:03:36;;;;;;;9.55;4.92;;;;;;;6.11;68.65;101942.46;1753549;80;21483;-67
2022/10/17 02:06:07;;;;;;;9.58;5.15;;;;;;;6.07;68.78;101951.87;1754530;82;21447;-64
2022/10/17 02:08:48;;;;;;;10.63;5.15;;;;;;;6.02;68.94;101949.55;1753698;82;21041;-66
2022/10/17 02:11:23;;;;;;;10.00;5.10;;;;;;;6.01;69.01;101941.02;1754039;80;21054;-65
2022/10/17 02:14:28;;;;;;;8.15;4.85;;;;;;;5.98;69.21;101939.92;1726290;82;21066;-66
2022/10/17 02:17:15;;;;;;;10.85;5.55;;;;;;;5.98;69.23;101945.37;1767074;80;21497;-65
2022/10/17 02:20:12;;;;;;;10.32;5.53;;;;;;;5.97;69.37;101947.22;1758641;81;21035;-64
2022/10/17 02:22:55;;;;;;;9.25;5.10;;;;;;;5.94;69.43;101947.48;1773740;79;21011;-66
2022/10/17 02:25:44;;;;;;;9.80;5.20;;;;;;;5.90;69.44;101953.31;1809567;79;21010;-66
2022/10/17 02:28:21;;;;;;;9.78;5.50;;;;;;;5.89;69.46;101955.63;1798815;79;21430;-66
2022/10/17 02:30:56;;;;;;;7.55;4.80;;;;;;;5.91;69.35;101952.32;1801033;79;21033;-67
2022/10/17 02:33:36;;;;;;;12.47;5.17;;;;;;;5.95;69.16;101945.13;1797828;79;21045;-66
2022/10/17 02:36:13;;;;;;;10.30;5.00;;;;;;;6.00;69.09;101947.45;1784477;79;20990;-66
2022/10/17 02:38:43;;;;;;;13.10;5.80;;;;;;;6.01;68.95;101940.52;1815082;79;21030;-64
2022/10/17 02:41:15;;;;;;;11.38;6.12;;;;;;;6.04;68.78;101947.06;1806520;79;21033;-65
2022/10/17 02:43:46;;;;;;;11.12;5.25;;;;;;;6.08;68.55;101939.50;1805335;79;21003;-65
2022/10/17 02:46:22;;;;;;;11.33;6.05;;;;;;;6.10;68.46;101951.13;1796242;79;21014;-65
2022/10/17 02:48:56;;;;;;;10.18;5.47;;;;;;;6.14;68.35;101950.36;1798239;79;21026;-66
2022/10/17 02:51:42;;;;;;;10.60;5.35;;;;;;;6.16;68.19;101942.93;1793338;79;21002;-65
2022/10/17 02:54:26;;;;;;;11.68;5.60;;;;;;;6.20;68.01;101943.03;1808774;78;21034;-65
2022/10/17 02:57:02;;;;;;;11.40;5.72;;;;;;;6.21;67.90;101936.59;1777044;80;21033;-65
2022/10/17 02:59:34;;;;;;;9.10;4.85;;;;;;;6.22;67.77;101932.88;1755745;80;21015;-65
2022/10/17 03:02:04;;;;;;;11.10;5.70;;;;;;;6.23;67.71;101932.75;1750077;81;21088;-67
2022/10/17 03:04:36;;;;;;;10.48;5.40;;;;;;;6.26;67.64;101943.87;1797267;79;21038;-66
2022/10/17 03:07:05;;;;;;;10.35;5.30;;;;;;;6.26;67.56;101952.03;1797858;79;21014;-65
2022/10/17 03:09:36;;;;;;;11.83;6.12;;;;;;;6.26;67.50;101961.56;1805127;79;21422;-66
2022/10/17 03:12:07;;;;;;;9.95;5.25;;;;;;;6.26;67.47;101959.70;1815741;79;21066;-66
2022/10/17 03:14:38;;;;;;;11.30;4.95;;;;;;;6.28;67.48;101965.87;1776919;79;20999;-66
2022/10/17 03:17:08;;;;;;;9.98;5.22;;;;;;;6.29;67.40;101974.41;1779879;80;21070;-68
2022/10/17 03:19:38;;;;;;;9.75;5.80;;;;;;;6.30;67.35;101983.44;1766054;80;21066;-67
2022/10/17 03:22:07;;;;;;;13.55;6.40;;;;;;;6.30;67.39;101994.33;1774448;79;21014;-68
2022/10/17 03:24:38;;;;;;;9.13;5.87;;;;;;;6.26;67.52;101999.67;1741696;82;21078;-66
2022/10/17 03:27:07;;;;;;;11.85;6.28;;;;;;;6.22;67.69;102000.42;1754968;80;21498;-67
2022/10/17 03:29:39;;;;;;;13.45;6.08;;;;;;;6.18;67.90;101994.02;1740359;81;21034;-65
2022/10/17 03:32:10;;;;;;;13.88;7.03;;;;;;;6.13;68.12;102000.34;1750684;81;21059;-66
2022/10/17 03:34:41;;;;;;;12.88;6.62;;;;;;;6.04;68.45;102001.98;1758564;81;21478;-66
2022/10/17 03:37:10;;;;;;;14.70;6.67;;;;;;;5.95;68.81;102000.91;1766582;81;21069;-65
2022/10/17 03:39:41;;;;;;;13.30;6.70;;;;;;;5.89;69.18;102004.59;1763104;81;21040;-65
2022/10/17 03:42:11;;;;;;;15.13;6.33;;;;;;;5.83;69.48;102003.72;1808121;78;21508;-68
2022/10/17 03:44:40;;;;;;;14.10;6.53;;;;;;;5.75;69.74;102012.52;1754498;80;21038;-66
2022/10/17 03:47:09;;;;;;;14.63;6.55;;;;;;;5.65;70.08;102015.13;1803769;79;21035;-66
2022/10/17 03:49:41;;;;;;;14.63;6.42;;;;;;;5.55;70.33;102020.95;1808276;79;20984;-66
2022/10/17 03:52:13;;;;;;;10.03;5.53;;;;;;;5.48;70.64;102021.58;1808904;79;20991;-67
2022/10/17 03:54:42;;;;;;;13.05;6.25;;;;;;;5.48;70.83;102017.51;1796862;79;21054;-66
2022/10/17 03:57:12;;;;;;;12.58;6.67;;;;;;;5.47;70.96;102018.50;1808912;79;20983;-68
2022/10/17 03:59:42;;;;;;;14.70;7.00;;;;;;;5.41;71.18;102026.16;1782186;79;21021;-66
2022/10/17 04:02:14;;;;;;;13.20;5.95;;;;;;;5.35;71.39;102023.94;1802941;79;21073;-65
2022/10/17 04:04:45;;;;;;;10.60;6.60;;;;;;;5.28;71.57;102021.84;1808956;79;21485;-67
2022/10/17 04:07:15;;;;;;;13.35;6.12;;;;;;;5.25;71.77;102027.03;1808668;79;21053;-67
2022/10/17 04:09:48;;;;;;;12.40;6.55;;;;;;;5.21;71.80;102024.19;1786966;79;20999;-65
2022/10/17 04:12:22;;;;;;;17.45;6.92;;;;;;;5.12;71.93;102026.25;1809057;79;20983;-68
2022/10/17 04:14:51;;;;;;;11.90;6.22;;;;;;;5.08;72.12;102021.56;1792990;79;21048;-66
2022/10/17 04:17:23;;;;;;;11.97;6.42;;;;;;;5.07;72.24;102019.83;1802502;79;21465;-67
2022/10/17 04:19:52;;;;;;;14.83;6.90;;;;;;;5.02;72.29;102022.05;1813737;79;21042;-67
2022/10/17 04:22:24;;;;;;;11.45;6.28;;;;;;;4.99;72.46;102022.30;1793369;79;21003;-67
2022/10/17 04:24:55;;;;;;;16.07;7.78;;;;;;;4.95;72.58;102022.66;1786454;79;21371;-67
2022/10/17 04:27:28;;;;;;;14.18;8.08;;;;;;;4.91;72.70;102008.95;1807310;78;21375;-69
2022/10/17 04:29:58;;;;;;;15.40;8.13;;;;;;;4.89;72.75;101997.34;1804741;79;20986;-67
2022/10/17 04:32:28;;;;;;;16.15;8.70;;;;;;;4.88;72.89;101993.77;1794564;79;21090;-67
2022/10/17 04:34:59;;;;;;;15.25;7.70;;;;;;;4.89;73.03;101985.12;1785333;79;21046;-67
2022/10/17 04:37:29;;;;;;;14.55;8.00;;;;;;;4.86;73.01;101988.95;1805304;79;20998;-67
2022/10/17 04:40:00;;;;;;;18.05;7.58;;;;;;;4.78;73.15;101994.12;1786211;79;21027;-67
2022/10/17 04:42:34;;;;;;;13.95;7.83;;;;;;;4.73;73.42;102002.63;1808051;79;21030;-66
2022/10/17 04:45:04;;;;;;;15.23;7.47;;;;;;;4.73;73.65;102000.41;1792863;79;21001;-67
2022/10/17 04:47:34;;;;;;;17.17;8.15;;;;;;;4.74;73.78;101993.98;1804926;79;20987;-66
2022/10/17 04:50:04;;;;;;;15.32;7.80;;;;;;;4.74;73.80;101993.50;1791797;79;21046;-67
2022/10/17 04:52:38;;;;;;;17.15;8.10;;;;;;;4.75;73.83;101995.23;1803712;79;21490;-66
2022/10/17 04:55:09;;;;;;;14.20;7.30;;;;;;;4.76;73.90;102000.16;1793516;79;21022;-67
2022/10/17 04:57:39;;;;;;;19.57;8.20;;;;;;;4.77;73.97;102002.77;1805097;79;21033;-68
2022/10/17 05:00:12;;;;;;;18.90;7.03;;;;;;;4.82;74.08;102001.53;1781901;79;21045;-67
2022/10/17 05:02:49;;;;;;;20.85;7.35;;;;;;;4.82;74.14;102006.96;1815453;78;20999;-66
2022/10/17 05:05:19;;;;;;;16.62;7.17;;;;;;;4.83;74.16;102005.48;1809026;78;21038;-66
2022/10/17 05:07:53;;;;;;;12.70;6.95;;;;;;;4.84;74.28;102013.14;1721996;83;21097;-67
2022/10/17 05:10:25;;;;;;;17.12;7.40;;;;;;;4.86;74.37;102018.82;1707335;83;21078;-65
2022/10/17 05:12:55;;;;;;;15.68;7.08;;;;;;;4.90;74.38;102016.23;1714126;83;21105;-67
2022/10/17 05:15:29;;;;;;;13.90;7.05;;;;;;;4.92;74.31;102020.19;1682797;84;21013;-67
2022/10/17 05:17:59;;;;;;;16.17;7.37;;;;;;;4.94;74.33;102024.51;1683226;84;21044;-66
2022/10/17 05:20:28;;;;;;;15.40;7.90;;;;;;;4.99;74.38;102013.28;1680851;85;21131;-66
2022/10/17 05:23:02;;;;;;;16.48;8.08;;;;;;;5.05;74.34;102019.58;1680077;85;21084;-66
2022/10/17 05:25:34;;;;;;;16.93;7.85;;;;;;;5.10;74.18;102022.80;1703136;82;21470;-66
2022/10/17 05:28:05;;;;;;;13.35;7.08;;;;;;;5.15;74.05;102027.86;1767477;80;21049;-66
2022/10/17 05:30:35;;;;;;;13.90;7.28;;;;;;;5.20;73.89;102028.36;1753829;80;21529;-67
2022/10/17 05:33:10;;;;;;;16.93;7.33;;;;;;;5.27;73.72;102031.85;1743915;82;21579;-67
2022/10/17 05:35:41;;;;;;;14.80;7.03;;;;;;;5.33;73.49;102028.64;1765661;80;21043;-67
2022/10/17 05:38:11;;;;;;;14.63;7.10;;;;;;;5.39;73.23;102032.22;1722979;82;21083;-66
2022/10/17 05:40:43;;;;;;;17.87;7.55;;;;;;;5.46;72.95;102029.00;1742115;81;21106;-67
2022/10/17 05:43:15;;;;;;;15.10;6.80;;;;;;;5.50;72.72;102020.47;1757806;81;22016;-67
2022/10/17 05:45:45;;;;;;;14.03;6.67;;;;;;;5.55;72.51;102025.03;1746472;81;20976;-67
2022/10/17 05:48:16;;;;;;;14.65;6.80;;;;;;;5.60;72.34;102024.66;1753734;80;21140;-67
2022/10/17 05:50:48;;;;;;;14.47;6.47;;;;;;;5.64;72.02;102030.22;1760694;80;21062;-66
2022/10/17 05:53:17;;;;;;;13.98;7.25;;;;;;;5.69;71.70;102036.14;1753349;82;22047;-67
2022/10/17 05:55:58;;;;;;;18.40;7.20;;;;;;;5.76;71.46;102041.94;1753783;80;21537;-67
2022/10/17 05:58:28;;;;;;;18.05;6.80;;;;;;;5.82;71.23;102042.80;1741893;82;21481;-66
2022/10/17 06:01:03;;;;;;;13.72;6.17;;;;;;;5.87;70.90;102041.45;1748995;82;21090;-67
2022/10/17 06:03:34;;;;;;;13.10;6.80;;;;;;;5.93;70.58;102047.78;1754292;80;21434;-67
2022/10/17 06:06:07;;;;;;;31.73;19.98;;;;;;;5.99;70.29;102041.83;1765070;80;21576;-68
2022/10/17 06:08:38;;;;;;;20.40;9.83;;;;;;;6.06;70.10;102034.02;1753428;80;21027;-67
2022/10/17 06:11:11;;;;;;;15.78;8.08;;;;;;;6.13;69.89;102035.72;1754201;82;21548;-67
2022/10/17 06:13:42;;;;;;;16.12;8.00;;;;;;;6.19;69.62;102041.52;1753490;82;21090;-67
2022/10/17 06:16:14;;;;;;;13.03;7.15;;;;;;;6.26;69.39;102034.56;1764345;80;21137;-66
2022/10/17 06:18:45;;;;;;;12.05;6.83;;;;;;;6.31;69.12;102038.25;1753713;81;21082;-67
2022/10/17 06:21:18;;;;;;;14.13;7.08;;;;;;;6.36;68.90;102045.53;1744473;82;21043;-67
2022/10/17 06:23:48;;;;;;;14.58;7.40;;;;;;;6.41;68.79;102036.97;1749924;80;21034;-67
2022/10/17 06:26:20;;;;;;;12.15;6.45;;;;;;;6.44;68.69;102037.58;1751560;81;21078;-67
2022/10/17 06:28:49;;;;;;;10.95;6.87;;;;;;;6.50;68.49;102044.36;1769485;80;21049;-67
2022/10/17 06:31:20;;;;;;;19.82;6.80;;;;;;;6.54;68.30;102049.44;1752071;81;21041;-69
2022/10/17 06:33:50;;;;;;;12.58;6.20;;;;;;;6.61;68.24;102053.87;1763404;80;21010;-67
2022/10/17 06:36:21;;;;;;;14.33;6.67;;;;;;;6.66;68.06;102053.83;1689561;83;21087;-66
2022/10/17 06:38:53;;;;;;;14.78;6.22;;;;;;;6.74;67.93;102059.12;1678237;85;21096;-67
2022/10/17 06:41:24;;;;;;;12.28;5.90;;;;;;;6.80;67.65;102059.45;1687449;85;21451;-66
2022/10/17 06:43:56;;;;;;;12.53;6.33;;;;;;;6.89;67.31;102058.66;1698086;83;21109;-68
2022/10/17 06:46:40;;;;;;;12.68;5.65;;;;;;;6.98;67.09;102068.75;1681234;84;21026;-67
2022/10/17 06:49:12;;;;;;;12.90;5.17;;;;;;;7.07;66.60;102068.45;1696987;83;21513;-67
2022/10/17 06:51:44;;;;;;;11.63;5.55;;;;;;;7.19;66.04;102067.41;1685834;84;21018;-67
2022/10/17 06:54:16;;;;;;;11.43;5.87;;;;;;;7.30;65.60;102061.00;1710526;82;21054;-67
2022/10/17 06:57:05;;;;;;;14.75;6.00;;;;;;;7.41;65.16;102069.09;1765572;80;21036;-66
2022/10/17 06:59:56;;;;;;;13.22;5.85;;;;;;;7.51;64.57;102055.00;1760089;80;21079;-67
2022/10/17 07:02:28;;;;;;;10.75;5.42;;;;;;;7.64;64.15;102064.31;1757420;80;21195;-68
2022/10/17 07:05:00;;;;;;;11.53;5.45;;;;;;;7.73;63.69;102062.11;1753898;82;21015;-65
2022/10/17 07:07:31;;;;;;;10.20;4.85;;;;;;;7.84;63.19;102061.17;1753882;82;21094;-65
2022/10/17 07:10:03;;;;;;;10.32;4.83;;;;;;;7.95;62.74;102052.38;1729632;82;21486;-67
2022/10/17 07:12:36;;;;;;;10.45;4.85;;;;;;;8.05;62.26;102044.70;1759544;79;21007;-66
2022/10/17 07:15:12;;;;;;;11.22;5.30;;;;;;;8.16;61.80;102048.67;1723759;82;21078;-67
2022/10/17 07:17:41;;;;;;;13.10;5.50;;;;;;;8.24;61.54;102045.59;1767800;81;21132;-66
2022/10/17 07:20:12;;;;;;;10.18;4.92;;;;;;;8.33;61.39;102050.73;1758722;81;21073;-67
2022/10/17 07:22:44;;;;;;;11.03;5.03;;;;;;;8.40;60.94;102053.75;1762022;81;21059;-67
2022/10/17 07:25:15;;;;;;;10.80;5.30;;;;;;;8.49;60.65;102060.61;1810701;79;21022;-67
2022/10/17 07:27:49;;;;;;;11.57;5.10;;;;;;;8.61;60.08;102055.01;1807151;79;21027;-66
2022/10/17 07:30:19;;;;;;;8.38;4.60;;;;;;;8.70;59.69;102061.83;1800063;79;20963;-66
2022/10/17 07:32:55;;;;;;;10.13;4.70;;;;;;;8.78;59.50;102072.04;1794246;79;20990;-67
2022/10/17 07:35:25;;;;;;;14.35;5.10;;;;;;;8.84;59.24;102073.69;1793819;79;21034;-66
2022/10/17 07:37:56;;;;;;;9.93;4.15;;;;;;;8.91;59.07;102078.06;1818075;79;21400;-66
2022/10/17 07:40:26;;;;;;;8.20;4.92;;;;;;;9.02;59.02;102072.94;1760101;80;21048;-67
2022/10/17 07:42:56;;;;;;;10.23;4.62;;;;;;;9.34;58.44;102070.73;1754310;80;21543;-66
2022/10/17 07:45:27;;;;;;;10.15;4.72;;;;;;;9.83;57.79;102062.70;1773803;80;21042;-68
2022/10/17 07:47:57;;;;;;;9.13;4.53;;;;;;;10.43;56.70;102055.38;1751163;81;21034;-64
2022/10/17 07:50:28;;;;;;;11.10;4.28;;;;;;;11.24;54.14;102053.83;1751709;81;21170;-65
2022/10/17 07:52:57;;;;;;;10.28;4.72;;;;;;;11.88;52.20;102049.76;1759303;80;21022;-66
2022/10/17 07:55:26;;;;;;;12.95;4.70;;;;;;;12.40;51.00;102044.95;1733969;82;21073;-67
2022/10/17 07:57:59;;;;;;;10.45;4.35;;;;;;;12.90;49.68;102039.30;1744215;82;21114;-64
2022/10/17 08:00:28;;;;;;;11.05;4.40;;;;;;;13.31;48.37;102042.05;1772857;80;21496;-68
2022/10/17 08:02:59;;;;;;;10.13;4.65;;;;;;;13.74;47.32;102035.74;1767283;80;21067;-66
2022/10/17 08:05:29;;;;;;;15.13;5.00;;;;;;;14.15;46.39;102035.88;1753284;82;21058;-66
2022/10/17 08:07:59;;;;;;;9.53;4.67;;;;;;;14.54;45.47;102037.75;1753483;80;21126;-67
2022/10/17 08:10:30;;;;;;;14.55;4.92;;;;;;;14.84;45.01;102039.57;1759668;80;21547;-69
2022/10/17 08:12:59;;;;;;;11.88;4.83;;;;;;;15.14;44.13;102045.20;1754512;80;21526;-65
2022/10/17 08:15:30;;;;;;;12.98;5.22;;;;;;;15.33;43.69;102028.59;1746207;80;21049;-65
2022/10/17 08:18:00;;;;;;;11.48;4.87;;;;;;;15.43;42.92;102034.17;1749738;81;21106;-66
2022/10/17 08:20:33;;;;;;;10.53;4.87;;;;;;;15.49;42.01;102036.70;1758556;81;21444;-68
2022/10/17 08:23:04;;;;;;;9.13;4.75;;;;;;;15.48;41.93;102032.23;1767450;81;21076;-67
2022/10/17 08:25:33;;;;;;;8.03;4.60;;;;;;;15.44;41.78;102025.36;1736282;82;21509;-68
2022/10/17 08:28:03;;;;;;;18.30;5.10;;;;;;;15.32;41.06;102023.59;1738177;82;21078;-67
2022/10/17 08:30:33;;;;;;;23.62;4.50;;;;;;;15.14;41.19;102032.25;1714487;83;21098;-65
2022/10/17 08:33:04;;;;;;;11.53;4.78;;;;;;;14.97;41.59;102029.83;1760175;81;21094;-68
2022/10/17 08:35:33;;;;;;;15.23;4.50;;;;;;;14.82;41.58;102029.76;1767259;81;22024;-67
2022/10/17 08:38:03;;;;;;;14.07;4.83;;;;;;;14.68;41.58;102021.77;1750212;81;21084;-67
2022/10/17 08:40:33;;;;;;;14.63;4.42;;;;;;;14.51;41.49;102018.80;1731161;82;21007;-68
2022/10/17 08:43:19;;;;;;;12.70;3.92;;;;;;;14.32;41.86;102014.61;1722463;82;21023;-68
2022/10/17 08:45:59;;;;;;;19.55;4.58;;;;;;;14.19;41.86;102017.07;1772061;81;20976;-67
2022/10/17 08:48:30;;;;;;;65.05;7.53;;;;;;;14.08;42.25;102011.45;1756256;81;21007;-68
2022/10/17 08:51:14;;;;;;;11.60;4.58;;;;;;;13.97;42.40;102000.84;1760485;81;21074;-68
2022/10/17 08:54:16;;;;;;;23.02;4.62;;;;;;;13.91;42.68;102000.19;1688083;83;21082;-67
2022/10/17 08:56:54;;;;;;;12.95;3.67;;;;;;;13.87;42.83;101998.83;1702120;82;21063;-68
2022/10/17 08:59:29;;;;;;;37.20;5.72;;;;;;;13.82;42.83;101994.38;1774938;81;21074;-69
2022/10/17 09:02:32;;;;;;;22.05;5.30;;;;;;;13.78;43.15;101999.39;1774995;81;21043;-69
2022/10/17 09:05:34;;;;;;;8.08;3.83;;;;;;;13.78;43.10;101988.37;1759444;81;21066;-68
2022/10/17 09:08:15;;;;;;;8.33;3.87;;;;;;;13.77;43.63;102002.33;1725307;82;21020;-69
2022/10/17 09:11:01;;;;;;;8.88;3.95;;;;;;;13.73;43.85;102005.09;1754064;81;21037;-67
2022/10/17 09:14:01;;;;;;;9.35;4.08;;;;;;;13.68;44.10;102008.39;1764725;81;21022;-67
2022/10/17 09:17:13;;;;;;;6.40;3.55;;;;;;;13.63;44.17;102011.65;1733925;82;21063;-67
2022/10/17 09:20:02;;;;;;;8.33;3.70;;;;;;;13.57;44.48;102016.49;1767666;81;20991;-70
2022/10/17 09:22:46;;;;;;;6.62;3.60;;;;;;;13.56;44.59;102008.41;1745799;81;21094;-68
2022/10/17 09:25:18;;;;;;;10.48;3.85;;;;;;;13.56;44.50;102009.27;1740000;81;20999;-70
2022/10/17 09:28:07;;;;;;;7.53;3.58;;;;;;;13.56;44.63;102016.67;1754792;81;21114;-70
2022/10/17 09:30:46;;;;;;;7.45;3.80;;;;;;;13.54;44.51;102011.34;1756120;81;21050;-70
2022/10/17 09:33:27;;;;;;;6.87;3.98;;;;;;;13.54;44.41;102004.45;1810596;79;21062;-70
2022/10/17 09:35:59;;;;;;;10.08;4.17;;;;;;;13.54;44.38;102001.70;1796550;79;21482;-70
2022/10/17 09:38:38;;;;;;;10.58;3.80;;;;;;;13.54;44.52;101986.55;1795385;78;20974;-69
2022/10/17 09:41:20;;;;;;;8.28;3.40;;;;;;;13.57;44.39;101982.58;1803662;79;20983;-71
2022/10/17 09:43:58;;;;;;;12.55;4.10;;;;;;;13.59;44.53;101988.77;1800589;79;21505;-71
2022/10/17 09:46:36;;;;;;;9.13;3.85;;;;;;;13.59;44.34;101993.77;1807413;79;21007;-71
2022/10/17 09:49:16;;;;;;;9.75;3.70;;;;;;;13.60;44.22;101998.23;1800080;79;21081;-73
2022/10/17 09:51:45;;;;;;;8.45;3.95;;;;;;;13.63;44.20;102000.63;1788127;79;20986;-71
2022/10/17 09:54:25;;;;;;;9.35;4.45;;;;;;;13.64;44.29;101992.70;1784825;79;20987;-70
2022/10/17 09:57:04;;;;;;;7.00;3.40;;;;;;;13.68;43.92;101995.14;1781684;79;21002;-72
2022/10/17 09:59:37;;;;;;;8.65;3.50;;;;;;;13.71;43.72;102006.66;1796497;79;21062;-71
2022/10/17 10:02:16;;;;;;;8.60;3.95;;;;;;;13.76;43.55;102004.22;1805840;79;21004;-69
2022/10/17 10:05:05;;;;;;;12.88;4.20;;;;;;;13.78;43.47;101988.89;1800580;79;20982;-71
2022/10/17 10:07:38;;;;;;;8.50;3.67;;;;;;;13.81;43.34;101986.63;1808757;79;21364;-71
2022/10/17 10:10:23;;;;;;;6.20;3.67;;;;;;;13.85;43.02;101983.00;1803262;79;21218;-71
2022/10/17 10:13:06;;;;;;;7.30;3.60;;;;;;;13.87;43.21;101983.67;1791657;79;21014;-71
2022/10/17 10:15:39;;;;;;;6.60;3.60;;;;;;;13.87;43.25;101982.30;1802943;79;21042;-70
2022/10/17 10:18:32;;;;;;;7.50;3.50;;;;;;;13.89;43.05;101974.19;1799703;79;21084;-70
2022/10/17 10:21:09;;;;;;;6.95;3.20;;;;;;;13.91;43.12;101968.48;1781278;79;21438;-70
2022/10/17 10:23:42;;;;;;;8.68;3.58;;;;;;;13.94;43.07;101968.13;1803773;79;21031;-68
2022/10/17 10:26:23;;;;;;;8.38;3.30;;;;;;;13.96;43.27;101968.80;1792539;80;21050;-72
2022/10/17 10:29:02;;;;;;;9.63;3.35;;;;;;;13.98;42.94;101979.13;1798772;79;21059;-72
2022/10/17 10:31:39;;;;;;;9.35;3.05;;;;;;;14.03;42.48;101968.41;1797347;79;20996;-72
2022/10/17 10:34:27;;;;;;;7.53;3.37;;;;;;;14.07;42.34;101964.25;1778389;80;20968;-70
2022/10/17 10:37:06;;;;;;;6.45;4.00;;;;;;;14.11;42.35;101971.12;1790950;79;21057;-71
2022/10/17 10:39:43;;;;;;;8.08;3.60;;;;;;;14.12;42.44;101964.56;1791597;80;21004;-68
2022/10/17 10:42:34;;;;;;;7.17;3.85;;;;;;;14.17;42.61;101971.77;1800712;80;21008;-70
2022/10/17 10:45:23;;;;;;;7.35;3.45;;;;;;;14.18;42.57;101975.38;1738656;81;21086;-69
2022/10/17 10:48:01;;;;;;;9.25;3.60;;;;;;;14.18;42.52;101978.14;1746896;81;21090;-70
2022/10/17 10:50:38;;;;;;;9.33;3.77;;;;;;;14.19;42.47;101988.12;1753435;81;21006;-70
2022/10/17 10:53:41;;;;;;;11.00;3.90;;;;;;;14.20;42.47;101988.46;1749859;81;21042;-70
2022/10/17 10:56:25;;;;;;;12.85;4.33;;;;;;;14.22;42.30;101984.48;1734082;82;21034;-70
2022/10/17 10:59:18;;;;;;;8.53;3.58;;;;;;;14.25;42.28;101981.35;1734584;82;21058;-69
2022/10/17 11:02:29;;;;;;;11.08;4.60;;;;;;;14.28;42.27;101989.26;1746383;82;21074;-70
2022/10/17 11:05:19;;;;;;;9.25;3.58;;;;;;;14.34;41.82;101990.46;1748648;81;21094;-71
2022/10/17 11:08:08;;;;;;;8.50;3.35;;;;;;;14.41;41.71;101989.20;1749134;81;21007;-69
2022/10/17 11:11:12;;;;;;;7.37;3.30;;;;;;;14.44;41.17;101984.20;1749242;81;21034;-70
2022/10/17 11:13:50;;;;;;;7.70;3.65;;;;;;;14.47;40.13;101970.57;1732648;82;21501;-69
2022/10/17 11:16:41;;;;;;;7.20;3.33;;;;;;;14.50;39.91;101963.30;1738428;82;21499;-69
2022/10/17 11:19:35;;;;;;;5.40;3.37;;;;;;;14.51;39.88;101960.88;1745573;82;21039;-69
2022/10/17 11:22:21;;;;;;;8.93;3.87;;;;;;;14.54;39.70;101957.75;1739528;82;21098;-68
2022/10/17 11:25:15;;;;;;;8.98;3.50;;;;;;;14.55;39.67;101954.81;1740541;81;21051;-69
2022/10/17 11:27:46;;;;;;;7.95;3.50;;;;;;;14.61;39.46;101952.34;1696268;83;21074;-69
2022/10/17 11:30:15;;;;;;;5.85;3.60;;;;;;;14.66;39.21;101941.09;1699571;83;21043;-69
2022/10/17 11:32:49;;;;;;;7.05;3.70;;;;;;;14.71;39.04;101935.86;1727586;82;21463;-70
2022/10/17 11:35:32;;;;;;;6.33;3.72;;;;;;;14.73;38.94;101937.91;1758146;81;21046;-70
2022/10/17 11:38:22;;;;;;;8.68;3.60;;;;;;;14.74;38.90;101926.35;1751057;81;21672;-69
2022/10/17 11:40:55;;;;;;;6.62;3.98;;;;;;;14.76;38.83;101927.02;1799459;79;21053;-70
2022/10/17 11:43:34;;;;;;;5.78;3.30;;;;;;;14.79;38.91;101923.36;1782880;79;21026;-71
2022/10/17 11:46:18;;;;;;;9.25;4.65;;;;;;;14.83;38.27;101925.22;1796256;79;20994;-70
2022/10/17 11:48:59;;;;;;;8.40;5.08;;;;;;;14.87;38.23;101917.75;1760684;80;21042;-70
2022/10/17 11:51:29;;;;;;;8.75;5.00;;;;;;;14.90;38.57;101917.90;1741818;82;21022;-69
2022/10/17 11:54:15;;;;;;;7.33;3.72;;;;;;;14.88;38.44;101907.58;1740857;82;21098;-69
2022/10/17 11:56:52;;;;;;;7.40;3.67;;;;;;;14.90;38.54;101907.72;1727063;82;21023;-70
2022/10/17 11:59:44;;;;;;;10.98;3.52;;;;;;;14.94;38.04;101905.44;1758533;81;21039;-70
2022/10/17 12:02:40;;;;;;;7.87;3.50;;;;;;;14.98;38.01;101919.22;1758669;81;21635;-70
2022/10/17 12:05:27;;;;;;;7.37;3.52;;;;;;;15.00;38.21;101917.13;1750626;81;21083;-70